map of AAL home
AAL - Airport
Location
City:  Aalborg, Denmark
ICAO:EKYT
IATA:AAL

Details
Type:Airport (Aerodrome, Airfield)
Latitude:5705'34"N (57.092789)
Longitude:950'57"E (9.849164)
Elevation:10 ft (3 m)
Variation:3.11E (WMM2015v2 magnetic declination)
0.20 annual change
Runways:2
Longest:8707 × 148 ft (2654 × 45 m), paved

Time
Time Zone:UTC+1 (DST+2)
Local Time:

Weather
METAR:EKYT 041350Z AUTO 20014KT 9999 -RA FEW009/// BKN011/// OVC015/// 03/02 Q1013 R26L/290195
TAF:EKYT 041118Z 0412/0512 21005KT 8000 -RADZ SCT008 BKN020
TEMPO 0412/0424 19015G28KT 2000 RASNDZ BKN004
FM050000 24020KT 9999 BKN020
TEMPO 0500/0507 27022G34KT 4000 SHRA BKN012 SCT020CB
TEMPO 0507/0512 28018G30KT

Related Locations
Nearby:
Farthest:CHT: 11472 mi / 18463 km
Waitangi [Tuuta], CIT, NZ

Find:

   beyond  
but within

Other Information
Maps:
NOTAMs:
Links:
Sources:

  
  • flag of Denmark
  

Airport Diagram

Airport diagram for AAL

Larger airport diagram (OBSOLETE) from NGA

Sectional Chart

Flight Planning
at skyvector.com

Satellite Image

Google Maps Satellite view

 

Copyright © 2004-2019 Karl L. Swartz. All rights reserved.
The Great Circle Mapper name and logo are trademarks of the Great Circle Mapper.
All other trademarks mentioned herein belong to their respective owners.
Please see credits for attibutions and further copyright information.

  Follow gcmap on Facebook Follow gcmap on Twitter GCmap on LinkedIn

hCard Microformat

Geo Microformat